Aeroporto :
LOGIN :

Iscrizione | Disclaimer

   EN    FR    IT 

 










Sommario :    VFR   VFR Marginale   IFR   IFR Intensivo   IFR Molto Intensivo
Visibilità : 
Base nubi : 
>= 8 km
>= 3000ft
5 / 8 km
1000 / 3000 ft
1500m / 5 km
500 / 1000 ft
800 / 1500m
200 / 500 ft
< 800m
< 200 ft
Simboli :   Temporali  Nebbia  Neve Forte  Precipitazioni Forti  Vento > 20 kt
SIGMETs :   Varie  Temporali  Ghiacco  Turbolenza  Onda orograficha  Ceneri Vulcaniche






- Altitudine del aeroporto : 22 ft
- Codice IATA : LDY


EGAE - Londonderry Eglington

ULTIMO METAR :
  • 141650Z 25012KT 9000 FEW006 SCT011 BKN040 14/12 Q1014

METARs OBSOLETI :
  • 141620Z 26015KT 9999 FEW008 BKN011 14/12 Q1014
  • 141550Z 25009KT 7000 -RADZ FEW005 BKN008 BKN015 14/13 Q1015
  • 141520Z 26008KT 8000 -RA FEW008 BKN015 14/13 Q1015
  • 141450Z 26012KT 7000 -RADZ FEW006 SCT011 BKN038 14/13 Q1015

TAF TAF EGAE
Valido dal 14 a 15 ore il 14 a 20 ore UTC


141400Z 1415/1420 26011KT 9999 -RA SCT012 BKN016
TEMPO 1415/1420 6000 RA -RADZ BKN012
PROB40
TEMPO 1415/1420 4000 RADZ BKN008



MetMap, La meteo Aeronautica in un colpo d'occhio ! - Copyright ORBIFLY Dicembre 2007 - Disclaimer

ORBIFLY MET'MAP TEAM :

Programmazione e sviluppo : Alexandra Zaïnal
Concezione : Baudouin d'Aumeries
Aiuto per la programmazione : Marc-Olivier Méhu
Supporto tecnico e logistico : Manuel Goepfert
Aiuto per la traduzione : Arnaldo La Scala

Contatto : metmap@orbifly.com




FONTI E CREDITI :

   NOAA